Time;durP1;ratioP1;P1;durP2;ratioP2;P2;SDS_P1;SDS_P2;PMS_P1;PMS_P2;Temp;Humidity;BMP_temperature;BMP_pressure;BME280_temperature;BME280_humidity;BME280_pressure;Samples;Min_cycle;Max_cycle;Signal;HPM_P1;HPM_P2
2021/11/10 00:00:32;;;;;;;18.05;7.65;;;10.10;99.90;;;;;;5094340;28;20036;-72
2021/11/10 00:02:58;;;;;;;15.75;6.78;;;10.10;99.90;;;;;;5094199;28;20036;-72
2021/11/10 00:05:24;;;;;;;18.13;9.30;;;10.00;99.90;;;;;;5094337;28;20492;-72
2021/11/10 00:07:49;;;;;;;23.20;8.60;;;10.00;99.90;;;;;;5094132;28;20062;-72
2021/11/10 00:10:16;;;;;;;21.23;9.10;;;10.00;99.90;;;;;;5093849;28;20036;-72
2021/11/10 00:12:42;;;;;;;16.77;8.00;;;10.00;99.90;;;;;;5094006;28;20043;-72
2021/11/10 00:15:09;;;;;;;18.65;8.10;;;9.90;99.90;;;;;;5092958;28;20557;-72
2021/11/10 00:17:36;;;;;;;19.42;8.65;;;10.00;99.90;;;;;;5092935;28;20044;-72
2021/11/10 00:20:03;;;;;;;22.58;11.02;;;10.00;99.90;;;;;;5093876;28;20074;-72
2021/11/10 00:22:29;;;;;;;22.30;9.18;;;10.00;99.90;;;;;;5094044;28;20115;-72
2021/11/10 00:24:55;;;;;;;18.85;8.23;;;9.90;99.90;;;;;;5092952;28;20472;-72
2021/11/10 00:27:21;;;;;;;26.15;9.50;;;9.90;99.90;;;;;;5094256;28;20040;-72
2021/11/10 00:29:49;;;;;;;20.48;9.88;;;9.90;99.90;;;;;;5092715;28;20050;-72
2021/11/10 00:32:15;;;;;;;24.60;9.80;;;9.90;99.90;;;;;;5092888;28;20403;-72
2021/11/10 00:34:40;;;;;;;16.63;8.75;;;9.90;99.90;;;;;;5093179;28;20055;-72
2021/11/10 00:37:06;;;;;;;20.00;8.85;;;9.80;99.90;;;;;;5093640;28;20081;-72
2021/11/10 00:39:32;;;;;;;22.30;9.35;;;9.80;99.90;;;;;;5093321;28;20028;-72
2021/11/10 00:41:57;;;;;;;21.90;9.38;;;9.80;99.90;;;;;;5093606;28;20040;-72
2021/11/10 00:44:23;;;;;;;19.02;9.52;;;9.80;99.90;;;;;;5093947;28;20488;-72
2021/11/10 00:46:49;;;;;;;19.88;9.30;;;9.80;99.90;;;;;;5093779;28;20072;-72
2021/11/10 00:49:15;;;;;;;20.08;8.88;;;9.80;99.90;;;;;;5092175;28;20044;-72
2021/11/10 00:51:40;;;;;;;23.05;8.93;;;9.80;99.90;;;;;;5093473;28;20434;-72
2021/11/10 00:54:06;;;;;;;19.23;8.38;;;9.80;99.90;;;;;;5093753;28;20165;-72
2021/11/10 00:56:31;;;;;;;19.77;9.35;;;9.70;99.90;;;;;;5093350;28;20098;-72
2021/11/10 00:58:59;;;;;;;20.65;9.15;;;9.70;99.90;;;;;;5091812;28;20077;-72
2021/11/10 01:01:25;;;;;;;20.77;9.85;;;9.70;99.90;;;;;;5093530;28;20044;-72
2021/11/10 01:03:51;;;;;;;22.67;10.20;;;9.70;99.90;;;;;;5093239;28;20047;-72
2021/11/10 01:06:16;;;;;;;19.90;9.40;;;9.70;99.90;;;;;;5093865;28;20044;-72
2021/11/10 01:08:43;;;;;;;13.57;8.02;;;9.70;99.90;;;;;;5093125;28;20071;-72
2021/11/10 01:11:09;;;;;;;21.50;9.13;;;9.60;99.90;;;;;;5093536;28;20036;-72
2021/11/10 01:13:35;;;;;;;22.10;10.20;;;9.60;99.90;;;;;;5093150;28;20039;-72
2021/11/10 01:16:01;;;;;;;21.35;9.60;;;9.60;99.90;;;;;;5093164;28;20488;-72
2021/11/10 01:18:27;;;;;;;20.83;10.10;;;9.60;99.90;;;;;;5092956;28;20036;-72
2021/11/10 01:20:52;;;;;;;21.48;9.02;;;9.60;99.90;;;;;;5093098;28;20115;-72
2021/11/10 01:23:18;;;;;;;26.85;11.23;;;9.60;99.90;;;;;;5093380;28;20028;-72
2021/11/10 01:25:43;;;;;;;17.23;9.18;;;9.50;99.90;;;;;;5092012;28;20048;-72
2021/11/10 01:28:10;;;;;;;20.75;10.23;;;9.50;99.90;;;;;;5091840;28;20044;-72
2021/11/10 01:30:37;;;;;;;23.67;10.40;;;9.50;99.90;;;;;;5092761;28;20093;-72
2021/11/10 01:33:03;;;;;;;22.23;10.82;;;9.50;99.90;;;;;;5091769;28;20078;-72
2021/11/10 01:35:29;;;;;;;26.15;11.55;;;9.50;99.90;;;;;;5093228;28;20068;-72
2021/11/10 01:37:54;;;;;;;27.05;11.40;;;9.40;99.90;;;;;;5093228;28;20032;-72
2021/11/10 01:40:21;;;;;;;30.27;12.55;;;9.50;99.90;;;;;;5092731;28;20396;-72
2021/11/10 01:42:51;;;;;;;24.33;11.10;;;9.50;99.90;;;;;;5091732;28;20119;-72
2021/11/10 01:45:18;;;;;;;25.65;11.02;;;9.40;99.90;;;;;;5092958;28;20492;-72
2021/11/10 01:47:45;;;;;;;22.38;12.00;;;9.40;99.90;;;;;;5092974;28;20055;-72
2021/11/10 01:50:14;;;;;;;20.40;11.05;;;9.40;99.90;;;;;;5092747;28;20040;-72
2021/11/10 01:52:40;;;;;;;27.23;12.10;;;9.40;99.90;;;;;;5094009;28;20380;-72
2021/11/10 01:55:07;;;;;;;26.00;12.82;;;9.40;99.90;;;;;;5097124;28;20040;-72
2021/11/10 01:57:33;;;;;;;24.65;12.48;;;9.40;99.90;;;;;;5096858;28;20402;-72
2021/11/10 02:00:12;;;;;;;22.02;11.77;;;9.30;99.90;;;;;;5096465;28;20032;-72
2021/11/10 02:02:41;;;;;;;20.88;11.80;;;9.30;99.90;;;;;;5097086;28;20051;-72
2021/11/10 02:05:09;;;;;;;24.65;10.95;;;9.30;99.90;;;;;;5096608;28;20035;-72
2021/11/10 02:07:35;;;;;;;22.15;11.65;;;9.40;99.90;;;;;;5096539;28;20036;-72
2021/11/10 02:10:01;;;;;;;28.83;13.07;;;9.30;99.90;;;;;;5096173;28;20035;-72
2021/11/10 02:12:28;;;;;;;25.15;13.07;;;9.40;99.90;;;;;;5095234;28;20044;-72
2021/11/10 02:14:54;;;;;;;25.00;12.50;;;9.40;99.90;;;;;;5095427;28;20459;-72
2021/11/10 02:17:20;;;;;;;28.85;13.98;;;9.40;99.90;;;;;;5096291;28;20075;-72
2021/11/10 02:19:47;;;;;;;29.92;13.27;;;9.40;99.90;;;;;;5095826;28;20040;-72
2021/11/10 02:22:16;;;;;;;29.10;13.80;;;9.40;99.90;;;;;;5095435;28;20576;-72
2021/11/10 02:24:43;;;;;;;24.60;14.05;;;9.30;99.90;;;;;;5094939;28;20083;-72
2021/11/10 02:27:15;;;;;;;24.33;13.05;;;9.20;99.90;;;;;;5095197;28;20040;-72
2021/11/10 02:29:41;;;;;;;31.88;15.45;;;9.30;99.90;;;;;;5096110;28;20077;-72
2021/11/10 02:32:12;;;;;;;29.02;14.52;;;9.20;99.90;;;;;;5094678;28;20051;-72
2021/11/10 02:34:39;;;;;;;23.80;12.80;;;9.20;99.90;;;;;;5095322;28;20047;-72
2021/11/10 02:37:05;;;;;;;27.40;13.00;;;9.20;99.90;;;;;;5096273;28;20492;-72
2021/11/10 02:39:31;;;;;;;31.33;14.57;;;9.20;99.90;;;;;;5095820;28;20039;-72
2021/11/10 02:41:57;;;;;;;30.08;13.23;;;9.20;99.90;;;;;;5095932;28;20047;-72
2021/11/10 02:44:23;;;;;;;27.13;13.82;;;9.20;99.90;;;;;;5094628;28;20040;-72
2021/11/10 02:46:51;;;;;;;24.30;12.63;;;9.20;99.90;;;;;;5094443;28;20046;-72
2021/11/10 02:49:19;;;;;;;25.48;13.55;;;9.20;99.90;;;;;;5095501;28;20032;-72
2021/11/10 02:52:04;;;;;;;29.05;13.80;;;9.20;99.90;;;;;;5095892;28;20042;-72
2021/11/10 02:54:32;;;;;;;30.63;14.27;;;9.20;99.90;;;;;;5095731;28;20093;-72
2021/11/10 02:57:01;;;;;;;30.38;14.82;;;9.20;99.90;;;;;;5095518;28;20042;-72
2021/11/10 02:59:27;;;;;;;26.50;14.43;;;9.20;99.90;;;;;;5095271;28;20079;-72
2021/11/10 03:01:53;;;;;;;28.90;15.15;;;9.20;99.90;;;;;;5094474;28;20072;-72
2021/11/10 03:04:21;;;;;;;28.05;14.80;;;9.20;99.90;;;;;;5095611;28;20039;-72
2021/11/10 03:06:46;;;;;;;28.58;15.07;;;9.20;99.90;;;;;;5095834;28;20480;-72
2021/11/10 03:09:16;;;;;;;25.35;14.93;;;9.20;99.90;;;;;;5093958;28;20062;-72
2021/11/10 03:11:42;;;;;;;33.20;15.95;;;9.20;99.90;;;;;;5095516;28;20054;-72
2021/11/10 03:14:07;;;;;;;33.70;15.18;;;9.10;99.90;;;;;;5095744;28;20480;-72
2021/11/10 03:16:33;;;;;;;31.73;17.10;;;9.10;99.90;;;;;;5095192;28;20361;-72
2021/11/10 03:18:58;;;;;;;28.27;15.52;;;9.10;99.90;;;;;;5094820;28;20036;-72
2021/11/10 03:21:24;;;;;;;29.98;14.52;;;9.10;99.90;;;;;;5095158;28;20071;-72
2021/11/10 03:23:49;;;;;;;29.73;15.40;;;9.10;99.90;;;;;;5095268;28;20036;-72
2021/11/10 03:26:18;;;;;;;28.00;15.32;;;9.20;99.90;;;;;;5094059;28;20421;-72
2021/11/10 03:28:44;;;;;;;31.83;16.42;;;9.20;99.90;;;;;;5093418;28;20527;-72
2021/11/10 03:31:10;;;;;;;29.42;14.80;;;9.20;99.90;;;;;;5094977;28;20028;-72
2021/11/10 03:33:35;;;;;;;30.30;16.13;;;9.20;99.90;;;;;;5093470;28;20072;-72
2021/11/10 03:36:01;;;;;;;26.63;15.43;;;9.20;99.90;;;;;;5095038;28;20036;-72
2021/11/10 03:38:27;;;;;;;33.28;15.75;;;9.20;99.90;;;;;;5094747;28;20036;-73
2021/11/10 03:40:53;;;;;;;29.90;15.15;;;9.30;99.90;;;;;;5094696;28;20430;-72
2021/11/10 03:43:18;;;;;;;31.38;16.23;;;9.30;99.90;;;;;;5094944;28;20043;-72
2021/11/10 03:45:44;;;;;;;26.08;14.27;;;9.30;99.90;;;;;;5095286;28;20118;-72
2021/11/10 03:48:12;;;;;;;29.27;15.05;;;9.30;99.90;;;;;;5094688;28;20126;-72
2021/11/10 03:50:41;;;;;;;29.92;15.63;;;9.40;99.90;;;;;;5094226;28;20040;-72
2021/11/10 03:53:07;;;;;;;22.23;13.98;;;9.40;99.90;;;;;;5094425;28;20077;-72
2021/11/10 03:55:36;;;;;;;25.38;14.20;;;9.40;99.90;;;;;;5094742;28;20089;-72
2021/11/10 03:58:09;;;;;;;26.85;14.00;;;9.40;99.90;;;;;;5093198;28;20044;-72
2021/11/10 04:00:35;;;;;;;26.98;14.77;;;9.40;99.90;;;;;;5094063;28;20114;-72
2021/11/10 04:03:01;;;;;;;27.05;15.00;;;9.40;99.90;;;;;;5094305;28;20099;-72
2021/11/10 04:05:27;;;;;;;28.90;13.90;;;9.40;99.90;;;;;;5094472;28;20426;-72
2021/11/10 04:07:53;;;;;;;30.83;15.77;;;9.40;99.90;;;;;;5094698;28;20161;-72
2021/11/10 04:10:18;;;;;;;28.13;16.45;;;9.40;99.90;;;;;;5094260;28;20040;-72
2021/11/10 04:12:44;;;;;;;34.95;16.50;;;9.40;99.90;;;;;;5094180;28;20396;-72
2021/11/10 04:15:10;;;;;;;27.35;14.98;;;9.40;99.90;;;;;;5093702;28;20036;-72
2021/11/10 04:17:36;;;;;;;29.42;15.30;;;9.40;99.90;;;;;;5092389;28;20052;-72
2021/11/10 04:20:03;;;;;;;30.13;16.65;;;9.40;99.90;;;;;;5092495;28;20048;-72
2021/11/10 04:22:28;;;;;;;29.15;15.88;;;9.40;99.90;;;;;;5094083;28;20040;-72
2021/11/10 04:24:54;;;;;;;30.20;15.60;;;9.40;99.90;;;;;;5094309;28;20036;-72
2021/11/10 04:27:20;;;;;;;25.85;14.75;;;9.40;99.90;;;;;;5092833;28;20077;-72
2021/11/10 04:29:47;;;;;;;26.75;15.10;;;9.40;99.90;;;;;;5093463;28;20072;-72
2021/11/10 04:32:13;;;;;;;26.35;13.90;;;9.40;99.90;;;;;;5093902;28;20077;-72
2021/11/10 04:34:39;;;;;;;25.10;14.82;;;9.40;99.90;;;;;;5093726;28;20036;-72
2021/11/10 04:37:05;;;;;;;30.35;15.60;;;9.40;99.90;;;;;;5093788;28;20040;-72
2021/11/10 04:39:32;;;;;;;24.55;15.45;;;9.40;99.90;;;;;;5093184;28;20036;-72
2021/11/10 04:41:58;;;;;;;24.83;13.93;;;9.40;99.90;;;;;;5092637;28;20161;-72
2021/11/10 04:44:24;;;;;;;26.35;13.63;;;9.40;99.90;;;;;;5092219;28;20377;-72
2021/11/10 04:46:51;;;;;;;22.58;14.15;;;9.40;99.90;;;;;;5092520;28;20044;-72
2021/11/10 04:49:17;;;;;;;26.73;14.38;;;9.40;99.90;;;;;;5093407;28;20040;-72
2021/11/10 04:51:44;;;;;;;24.77;14.20;;;9.40;99.90;;;;;;5092430;28;20169;-72
2021/11/10 04:54:17;;;;;;;30.33;14.35;;;9.50;99.90;;;;;;5094056;28;20036;-72
2021/11/10 04:56:43;;;;;;;22.10;12.48;;;9.50;99.90;;;;;;5093781;28;20039;-72
2021/11/10 04:59:09;;;;;;;29.67;14.98;;;9.50;99.90;;;;;;5093492;28;20032;-72
2021/11/10 05:01:38;;;;;;;33.85;14.80;;;9.50;99.90;;;;;;5092113;28;20493;-72
2021/11/10 05:04:04;;;;;;;24.55;14.98;;;9.50;99.90;;;;;;5093597;28;20510;-72
2021/11/10 05:06:31;;;;;;;25.15;14.18;;;9.40;99.90;;;;;;5093739;28;20077;-72
2021/11/10 05:08:57;;;;;;;23.60;13.70;;;9.40;99.90;;;;;;5091905;28;20043;-72
2021/11/10 05:11:23;;;;;;;26.55;14.20;;;9.40;99.90;;;;;;5093391;28;20040;-72
2021/11/10 05:13:50;;;;;;;27.85;14.15;;;9.40;99.90;;;;;;5093842;28;20047;-72
2021/11/10 05:16:16;;;;;;;30.02;13.25;;;9.40;99.90;;;;;;5092191;28;20484;-72
2021/11/10 05:18:41;;;;;;;31.10;13.10;;;9.40;99.90;;;;;;5092873;28;20048;-72
2021/11/10 05:21:07;;;;;;;22.10;12.43;;;9.40;99.90;;;;;;5093176;28;20043;-72
2021/11/10 05:23:33;;;;;;;19.63;11.68;;;9.40;99.90;;;;;;5093331;28;20039;-72
2021/11/10 05:25:58;;;;;;;22.45;12.93;;;9.50;99.90;;;;;;5093368;28;20043;-72
2021/11/10 05:28:24;;;;;;;27.92;13.02;;;9.50;99.90;;;;;;5094934;28;20055;-72
2021/11/10 05:30:50;;;;;;;22.65;12.35;;;9.50;99.90;;;;;;5095872;28;20119;-72
2021/11/10 05:33:15;;;;;;;26.48;11.73;;;9.50;99.90;;;;;;5097394;28;20047;-72
2021/11/10 05:35:41;;;;;;;21.85;11.73;;;9.50;99.90;;;;;;5095908;28;20044;-72
2021/11/10 05:38:07;;;;;;;20.27;10.55;;;9.50;99.90;;;;;;5097111;28;20057;-72
2021/11/10 05:40:33;;;;;;;20.42;10.25;;;9.50;99.90;;;;;;5096716;28;20488;-72
2021/11/10 05:42:59;;;;;;;18.30;10.95;;;9.50;99.90;;;;;;5097682;28;20070;-72
2021/11/10 05:45:24;;;;;;;15.38;9.93;;;9.50;99.90;;;;;;5095929;28;20388;-72
2021/11/10 05:47:50;;;;;;;14.02;9.95;;;9.50;99.90;;;;;;5097076;28;20044;-72
2021/11/10 05:50:16;;;;;;;27.00;11.68;;;9.50;99.90;;;;;;5097049;28;20070;-72
2021/11/10 05:52:43;;;;;;;20.15;10.75;;;9.50;99.90;;;;;;5095826;28;20043;-72
2021/11/10 05:55:10;;;;;;;22.90;11.27;;;9.50;99.90;;;;;;5096082;28;20048;-72
2021/11/10 05:57:38;;;;;;;25.38;12.07;;;9.50;99.90;;;;;;5097143;28;20058;-72
2021/11/10 06:00:07;;;;;;;19.08;10.95;;;9.50;99.90;;;;;;5096840;28;20037;-72
2021/11/10 06:02:34;;;;;;;20.77;11.57;;;9.50;99.90;;;;;;5096518;28;20495;-72
2021/11/10 06:04:59;;;;;;;24.45;12.20;;;9.50;99.90;;;;;;5096472;28;20114;-72
2021/11/10 06:07:25;;;;;;;22.15;10.60;;;9.50;99.90;;;;;;5096907;28;20125;-72
2021/11/10 06:09:51;;;;;;;23.42;12.60;;;9.50;99.90;;;;;;5094967;28;20044;-72
2021/11/10 06:12:16;;;;;;;19.38;11.50;;;9.50;99.90;;;;;;5096612;28;20051;-72
2021/11/10 06:14:42;;;;;;;21.58;11.90;;;9.50;99.90;;;;;;5096679;28;20032;-72
2021/11/10 06:17:08;;;;;;;20.92;12.88;;;9.50;99.90;;;;;;5096446;28;20040;-72
2021/11/10 06:19:33;;;;;;;21.65;12.30;;;9.50;99.90;;;;;;5094747;28;20043;-72
2021/11/10 06:21:59;;;;;;;23.52;13.63;;;9.50;99.90;;;;;;5094962;28;20036;-72
2021/11/10 06:24:25;;;;;;;22.50;13.07;;;9.50;99.90;;;;;;5096339;28;20047;-72
2021/11/10 06:26:50;;;;;;;21.88;12.98;;;9.50;99.90;;;;;;5094869;28;20050;-72
2021/11/10 06:29:17;;;;;;;23.20;13.55;;;9.40;99.90;;;;;;5096201;28;20403;-72
2021/11/10 06:31:43;;;;;;;26.02;13.40;;;9.50;99.90;;;;;;5095093;28;20032;-72
2021/11/10 06:34:08;;;;;;;19.77;13.02;;;9.50;99.90;;;;;;5096211;28;20153;-72
2021/11/10 06:36:34;;;;;;;23.17;13.73;;;9.50;99.90;;;;;;5095933;28;20039;-72
2021/11/10 06:39:00;;;;;;;24.95;14.68;;;9.40;99.90;;;;;;5095169;28;20040;-72
2021/11/10 06:41:25;;;;;;;18.60;13.65;;;9.40;99.90;;;;;;5095893;28;20048;-72
2021/11/10 06:43:51;;;;;;;22.80;13.88;;;9.40;99.90;;;;;;5094946;28;20044;-72
2021/11/10 06:46:17;;;;;;;19.35;14.13;;;9.40;99.90;;;;;;5094932;28;20043;-72
2021/11/10 06:48:43;;;;;;;26.27;16.75;;;9.40;99.90;;;;;;5095536;28;20044;-72
2021/11/10 06:51:14;;;;;;;22.20;15.05;;;9.40;99.90;;;;;;5095852;28;20068;-72
2021/11/10 06:53:41;;;;;;;25.30;15.18;;;9.40;99.90;;;;;;5094565;28;20048;-72
2021/11/10 06:56:06;;;;;;;22.23;13.95;;;9.40;99.90;;;;;;5095921;28;20075;-72
2021/11/10 06:58:32;;;;;;;28.08;15.45;;;9.40;99.90;;;;;;5095687;28;20075;-72
2021/11/10 07:00:58;;;;;;;22.80;15.60;;;9.40;99.90;;;;;;5095899;28;20036;-72
2021/11/10 07:03:24;;;;;;;25.90;15.68;;;9.40;99.90;;;;;;5095908;28;20032;-72
2021/11/10 07:05:50;;;;;;;26.60;16.33;;;9.40;99.90;;;;;;5096029;28;20028;-72
2021/11/10 07:08:15;;;;;;;28.60;16.02;;;9.40;99.90;;;;;;5095784;28;20484;-72
2021/11/10 07:10:41;;;;;;;26.27;15.77;;;9.40;99.90;;;;;;5093976;28;20561;-72
2021/11/10 07:13:07;;;;;;;25.75;16.23;;;9.40;99.90;;;;;;5095655;28;20469;-72
2021/11/10 07:15:33;;;;;;;27.50;16.00;;;9.40;99.90;;;;;;5095351;28;20043;-72
2021/11/10 07:17:58;;;;;;;25.42;16.33;;;9.50;99.90;;;;;;5095612;28;20052;-73
2021/11/10 07:20:24;;;;;;;26.65;16.50;;;9.50;99.90;;;;;;5095153;28;20088;-73
2021/11/10 07:22:50;;;;;;;22.05;16.23;;;9.40;99.90;;;;;;5095367;28;20118;-72
2021/11/10 07:25:16;;;;;;;24.05;15.40;;;9.50;99.90;;;;;;5094785;28;20047;-72
2021/11/10 07:27:41;;;;;;;24.20;15.68;;;9.40;99.90;;;;;;5095591;28;20079;-73
2021/11/10 07:30:10;;;;;;;24.17;15.07;;;9.40;99.90;;;;;;5094663;28;20047;-72
2021/11/10 07:32:36;;;;;;;28.60;16.60;;;9.40;99.90;;;;;;5094935;28;20047;-72
2021/11/10 07:35:03;;;;;;;22.52;17.08;;;9.40;99.90;;;;;;5095077;28;20119;-73
2021/11/10 07:37:29;;;;;;;26.75;16.70;;;9.40;99.90;;;;;;5077099;28;20109;-71
2021/11/10 07:39:54;;;;;;;23.80;15.55;;;9.40;99.90;;;;;;5094992;28;20496;-72
2021/11/10 07:42:20;;;;;;;31.00;17.55;;;9.40;99.90;;;;;;5093998;28;20036;-72
2021/11/10 07:44:46;;;;;;;26.25;16.45;;;9.40;99.90;;;;;;5094664;28;20503;-72
2021/11/10 07:47:17;;;;;;;25.50;16.30;;;9.40;99.90;;;;;;5094986;28;20044;-72
2021/11/10 07:49:44;;;;;;;23.65;16.40;;;9.40;99.90;;;;;;5094092;28;20094;-72
2021/11/10 07:52:11;;;;;;;31.50;16.63;;;9.40;99.90;;;;;;5093996;28;20498;-72
2021/11/10 07:54:38;;;;;;;27.75;17.00;;;9.40;99.90;;;;;;5095083;28;20044;-72
2021/11/10 07:57:04;;;;;;;24.10;16.25;;;9.50;99.90;;;;;;5095177;28;20542;-72
2021/11/10 07:59:29;;;;;;;27.15;17.40;;;9.50;99.90;;;;;;5093219;28;20039;-73
2021/11/10 08:01:55;;;;;;;27.45;16.75;;;9.50;99.90;;;;;;5094754;28;20400;-73
2021/11/10 08:04:21;;;;;;;31.27;17.00;;;9.50;99.90;;;;;;5094604;28;20035;-71
2021/11/10 08:06:46;;;;;;;28.55;16.38;;;9.50;99.90;;;;;;5092804;28;20488;-72
2021/11/10 08:09:12;;;;;;;25.45;16.20;;;9.50;99.90;;;;;;5093087;28;20492;-72
2021/11/10 08:11:38;;;;;;;32.25;17.33;;;9.50;99.90;;;;;;5094371;28;20129;-71
2021/11/10 08:14:05;;;;;;;23.00;15.75;;;9.50;99.90;;;;;;5094565;28;20089;-71
2021/11/10 08:16:30;;;;;;;28.42;16.83;;;9.50;99.90;;;;;;5094280;28;20032;-72
2021/11/10 08:18:56;;;;;;;26.83;16.75;;;9.60;99.90;;;;;;5093830;28;20454;-71
2021/11/10 08:21:22;;;;;;;25.23;16.02;;;9.60;99.90;;;;;;5093192;28;20048;-72
2021/11/10 08:23:48;;;;;;;25.73;15.73;;;9.70;99.90;;;;;;5093843;28;20040;-72
2021/11/10 08:26:14;;;;;;;24.85;15.85;;;9.70;99.90;;;;;;5094247;28;20039;-72
2021/11/10 08:28:39;;;;;;;28.35;16.75;;;9.70;99.90;;;;;;5092477;28;20056;-72
2021/11/10 08:31:05;;;;;;;22.25;15.48;;;9.80;99.90;;;;;;5093759;28;20036;-71
2021/11/10 08:33:31;;;;;;;25.27;16.08;;;9.90;99.90;;;;;;5093731;28;20573;-72
2021/11/10 08:35:58;;;;;;;21.10;15.90;;;10.00;99.90;;;;;;5093982;28;20055;-71
2021/11/10 08:38:24;;;;;;;25.00;16.35;;;10.10;99.90;;;;;;5093537;28;20091;-72
2021/11/10 08:40:50;;;;;;;23.23;14.73;;;10.20;99.90;;;;;;5092448;28;20046;-71
2021/11/10 08:43:19;;;;;;;24.55;14.52;;;10.30;99.90;;;;;;5092695;28;20047;-72
2021/11/10 08:45:48;;;;;;;20.55;14.32;;;10.40;99.90;;;;;;5093713;28;20044;-71
2021/11/10 08:48:14;;;;;;;22.75;15.30;;;10.50;99.90;;;;;;5094011;28;20036;-72
2021/11/10 08:50:43;;;;;;;22.40;13.55;;;10.60;99.90;;;;;;5093113;28;20036;-72
2021/11/10 08:53:18;;;;;;;21.98;13.52;;;10.60;99.90;;;;;;5093269;28;20524;-72
2021/11/10 08:55:47;;;;;;;19.13;13.52;;;10.70;99.90;;;;;;5093844;28;20074;-72
2021/11/10 08:58:13;;;;;;;22.67;13.05;;;10.90;99.90;;;;;;5093725;28;20048;-72
2021/11/10 09:00:39;;;;;;;24.10;13.23;;;11.00;99.90;;;;;;5093155;28;20032;-72
2021/11/10 09:03:05;;;;;;;21.70;12.32;;;11.10;99.90;;;;;;5093358;28;20050;-71
2021/11/10 09:05:33;;;;;;;18.88;11.27;;;11.10;99.90;;;;;;5093608;28;20067;-72
2021/11/10 09:08:00;;;;;;;20.50;12.65;;;11.20;99.90;;;;;;5093335;28;20039;-71
2021/11/10 09:10:25;;;;;;;23.45;12.93;;;11.10;99.90;;;;;;5093199;28;20043;-72
2021/11/10 09:12:52;;;;;;;18.45;12.23;;;11.10;99.90;;;;;;5092534;28;20127;-72
2021/11/10 09:15:19;;;;;;;24.10;12.80;;;11.10;99.90;;;;;;5093203;28;20036;-71
2021/11/10 09:17:46;;;;;;;17.95;12.30;;;11.10;99.90;;;;;;5093172;28;20434;-72
2021/11/10 09:20:19;;;;;;;21.60;12.25;;;11.00;99.90;;;;;;5093273;28;20098;-72
2021/11/10 09:22:46;;;;;;;17.98;11.13;;;11.00;99.90;;;;;;5092029;28;20484;-74
2021/11/10 09:25:14;;;;;;;20.10;11.68;;;10.90;99.90;;;;;;5093462;28;20043;-73
2021/11/10 09:27:40;;;;;;;19.65;12.07;;;10.90;99.90;;;;;;5094092;28;20170;-72
2021/11/10 09:30:09;;;;;;;18.45;11.30;;;10.90;99.90;;;;;;5091998;28;20118;-71
2021/11/10 09:32:36;;;;;;;22.73;12.73;;;10.90;99.90;;;;;;5093092;28;20120;-70
2021/11/10 09:35:05;;;;;;;19.95;11.82;;;10.90;99.90;;;;;;5092073;28;20599;-71
2021/11/10 09:37:31;;;;;;;24.52;12.30;;;10.90;99.90;;;;;;5093003;28;20076;-71
2021/11/10 09:39:57;;;;;;;21.05;12.05;;;10.90;99.90;;;;;;5092710;28;20551;-71
2021/11/10 09:42:25;;;;;;;47.38;13.52;;;10.90;99.90;;;;;;5093301;28;20150;-70
2021/11/10 09:44:54;;;;;;;29.85;12.57;;;11.00;99.90;;;;;;5091421;28;20040;-70
2021/11/10 09:47:20;;;;;;;20.63;11.75;;;11.00;99.90;;;;;;5092857;28;20036;-70
2021/11/10 09:49:48;;;;;;;21.30;11.90;;;11.00;99.90;;;;;;5092037;28;20074;-70
2021/11/10 09:52:15;;;;;;;20.90;11.77;;;11.00;99.90;;;;;;5093331;28;20114;-70
2021/11/10 09:54:41;;;;;;;20.30;11.32;;;11.00;99.90;;;;;;5092838;28;20036;-70
2021/11/10 09:57:06;;;;;;;27.85;12.68;;;10.90;99.90;;;;;;5092079;28;20395;-70
2021/11/10 09:59:32;;;;;;;21.52;11.65;;;10.90;99.90;;;;;;5092622;28;20173;-70
2021/11/10 10:01:58;;;;;;;25.27;11.60;;;10.90;99.90;;;;;;5092994;28;20075;-70
2021/11/10 10:04:25;;;;;;;18.73;11.75;;;10.90;99.90;;;;;;5092849;28;20047;-70
2021/11/10 10:06:52;;;;;;;17.42;11.25;;;10.90;99.90;;;;;;5093123;28;20539;-70
2021/11/10 10:09:18;;;;;;;20.38;11.05;;;10.90;99.90;;;;;;5091448;28;20036;-70
2021/11/10 10:11:45;;;;;;;19.25;11.68;;;11.00;99.90;;;;;;5092711;28;20044;-70
2021/11/10 10:14:10;;;;;;;22.60;12.00;;;10.90;99.90;;;;;;5094223;28;20476;-71
2021/11/10 10:16:36;;;;;;;20.38;12.05;;;11.00;99.90;;;;;;5096690;28;20032;-72
2021/11/10 10:19:10;;;;;;;21.98;12.57;;;11.00;99.90;;;;;;5096083;28;20055;-70
2021/11/10 10:21:40;;;;;;;19.67;11.63;;;11.00;99.90;;;;;;5095141;28;20404;-70
2021/11/10 10:24:07;;;;;;;20.85;11.73;;;11.00;99.90;;;;;;5096323;28;20044;-70
2021/11/10 10:26:32;;;;;;;21.73;11.77;;;11.00;99.90;;;;;;5096214;28;20488;-69
2021/11/10 10:29:07;;;;;;;22.48;12.50;;;11.00;99.90;;;;;;5095983;28;20043;-70
2021/11/10 10:31:35;;;;;;;21.48;11.15;;;11.00;99.90;;;;;;5096074;28;20480;-69
2021/11/10 10:34:06;;;;;;;20.92;11.40;;;11.10;99.90;;;;;;5096419;28;20127;-70
2021/11/10 10:36:35;;;;;;;20.85;11.63;;;11.10;99.90;;;;;;5096129;28;20040;-70
2021/11/10 10:39:13;;;;;;;23.05;10.57;;;11.10;99.90;;;;;;5095610;28;20044;-70
2021/11/10 10:41:51;;;;;;;23.58;10.63;;;11.10;99.90;;;;;;5095926;28;20050;-70
2021/11/10 10:44:27;;;;;;;17.80;10.35;;;11.00;99.90;;;;;;5094933;28;20434;-70
2021/11/10 10:47:11;;;;;;;22.27;11.07;;;11.00;99.90;;;;;;5095899;28;20028;-73
2021/11/10 10:49:44;;;;;;;25.45;11.30;;;11.00;99.90;;;;;;5095533;28;20571;-73
2021/11/10 10:52:20;;;;;;;20.40;11.15;;;11.00;99.90;;;;;;5095732;28;20032;-71
2021/11/10 10:54:50;;;;;;;23.88;10.63;;;11.10;99.90;;;;;;5095952;28;20036;-71
2021/11/10 10:57:23;;;;;;;23.15;10.93;;;11.00;99.90;;;;;;5095688;28;20094;-71
2021/11/10 10:59:52;;;;;;;17.75;11.55;;;11.00;99.90;;;;;;5095291;28;20090;-71
2021/11/10 11:02:25;;;;;;;19.70;11.27;;;11.10;99.90;;;;;;5095551;28;20483;-71
2021/11/10 11:04:53;;;;;;;17.65;11.07;;;11.10;99.90;;;;;;5094324;28;20046;-71
2021/11/10 11:07:19;;;;;;;25.25;12.25;;;11.10;99.90;;;;;;5095457;28;20126;-70
2021/11/10 11:09:48;;;;;;;22.17;12.02;;;11.10;99.90;;;;;;5095214;28;20075;-71
2021/11/10 11:12:29;;;;;;;20.65;12.32;;;11.10;99.90;;;;;;5095641;28;20093;-71
2021/11/10 11:15:24;;;;;;;22.30;11.02;;;11.20;99.90;;;;;;5094186;28;20040;-72
2021/11/10 11:17:50;;;;;;;18.35;11.23;;;11.20;99.90;;;;;;5095062;28;20075;-71
2021/11/10 11:20:19;;;;;;;29.23;13.27;;;11.20;99.90;;;;;;5093975;28;20101;-71
2021/11/10 11:22:46;;;;;;;25.05;11.82;;;11.30;99.90;;;;;;5095414;28;20094;-67
2021/11/10 11:25:16;;;;;;;23.67;11.82;;;11.30;99.90;;;;;;5092683;28;20043;-70
2021/11/10 11:28:03;;;;;;;23.60;12.00;;;11.30;99.90;;;;;;5095524;28;20147;-70
2021/11/10 11:30:41;;;;;;;21.08;11.55;;;11.30;99.90;;;;;;5093765;28;20399;-70
2021/11/10 11:33:15;;;;;;;23.02;12.85;;;11.40;99.90;;;;;;5094021;28;20036;-70
2021/11/10 11:35:47;;;;;;;21.20;11.73;;;11.40;99.90;;;;;;5093663;28;20152;-67
2021/11/10 11:38:21;;;;;;;22.02;10.85;;;11.40;99.90;;;;;;5094921;28;20122;-68
2021/11/10 11:40:50;;;;;;;26.48;12.00;;;11.40;99.90;;;;;;5093547;28;20083;-71
2021/11/10 11:43:18;;;;;;;23.30;11.75;;;11.40;99.90;;;;;;5095224;28;20058;-71
2021/11/10 11:45:47;;;;;;;21.58;12.13;;;11.30;99.90;;;;;;5093504;28;20047;-70
2021/11/10 11:48:14;;;;;;;23.95;11.52;;;11.30;99.90;;;;;;5094875;28;20040;-70
2021/11/10 11:50:40;;;;;;;23.20;11.00;;;11.30;99.90;;;;;;5092978;28;20047;-70
2021/11/10 11:53:07;;;;;;;27.10;12.15;;;11.30;99.90;;;;;;5105695;28;20035;-70
2021/11/10 11:55:39;;;;;;;23.30;10.75;;;11.30;99.90;;;;;;5114809;28;20040;-70
2021/11/10 11:58:19;;;;;;;22.70;11.32;;;11.30;99.90;;;;;;5114772;28;20483;-70
2021/11/10 12:00:48;;;;;;;24.75;11.63;;;11.30;99.90;;;;;;5114598;28;20410;-70
2021/11/10 12:03:20;;;;;;;27.92;11.70;;;11.30;99.90;;;;;;5114161;28;20375;-70
2021/11/10 12:05:46;;;;;;;20.45;11.60;;;11.30;99.90;;;;;;5113359;28;20035;-70
2021/11/10 12:08:12;;;;;;;21.90;11.10;;;11.30;99.90;;;;;;5114683;28;20039;-70
2021/11/10 12:10:41;;;;;;;28.55;10.65;;;11.30;99.90;;;;;;5105308;28;20550;-71
2021/11/10 12:13:21;;;;;;;20.23;10.65;;;11.30;99.90;;;;;;5092964;28;20036;-70
2021/11/10 12:16:06;;;;;;;23.48;10.60;;;11.30;99.90;;;;;;5093286;28;20372;-70
2021/11/10 12:18:43;;;;;;;27.02;11.35;;;11.20;99.90;;;;;;5093619;28;20040;-71
2021/11/10 12:21:11;;;;;;;19.92;10.38;;;11.20;99.90;;;;;;5094001;28;20480;-70
2021/11/10 12:23:55;;;;;;;24.00;10.80;;;11.10;99.90;;;;;;5094462;28;20044;-70
2021/11/10 12:26:24;;;;;;;24.58;10.45;;;11.10;99.90;;;;;;5092980;28;20499;-70
2021/11/10 12:28:50;;;;;;;20.17;11.25;;;11.10;99.90;;;;;;5093589;28;20123;-70
2021/11/10 12:31:33;;;;;;;22.75;10.48;;;11.10;99.90;;;;;;5093623;28;20040;-71
2021/11/10 12:34:24;;;;;;;19.52;10.18;;;11.10;99.90;;;;;;5093980;28;20072;-70
2021/11/10 12:36:52;;;;;;;24.48;10.52;;;11.00;99.90;;;;;;5093265;28;20047;-71